Time;durP1;ratioP1;P1;durP2;ratioP2;P2;SDS_P1;SDS_P2;PMS_P1;PMS_P2;Temp;Humidity;BMP_temperature;BMP_pressure;BME280_temperature;BME280_humidity;BME280_pressure;Samples;Min_cycle;Max_cycle;Signal;HPM_P1;HPM_P2
2023/07/13 00:01:07;;;;;;;3.83;3.30;;;;;;;;;;5015145;28;20458;-51
2023/07/13 00:03:35;;;;;;;3.20;2.90;;;;;;;;;;5015131;28;20451;-55
2023/07/13 00:06:03;;;;;;;2.73;2.53;;;;;;;;;;5014988;28;21086;-54
2023/07/13 00:08:32;;;;;;;3.80;2.30;;;;;;;;;;5015097;28;20525;-55
2023/07/13 00:10:59;;;;;;;2.60;2.40;;;;;;;;;;5015073;28;20870;-55
2023/07/13 00:13:26;;;;;;;3.07;2.83;;;;;;;;;;5014958;28;20549;-54
2023/07/13 00:15:53;;;;;;;3.10;2.33;;;;;;;;;;5014865;28;20542;-55
2023/07/13 00:18:20;;;;;;;2.90;2.70;;;;;;;;;;5014782;28;20516;-55
2023/07/13 00:20:49;;;;;;;2.90;2.70;;;;;;;;;;5014724;28;20537;-56
2023/07/13 00:23:17;;;;;;;2.90;2.27;;;;;;;;;;5014811;28;20450;-55
2023/07/13 00:25:44;;;;;;;2.53;2.33;;;;;;;;;;5014735;28;20454;-56
2023/07/13 00:28:11;;;;;;;3.57;2.63;;;;;;;;;;5014497;28;20470;-53
2023/07/13 00:30:38;;;;;;;3.10;2.70;;;;;;;;;;5014636;28;20454;-56
2023/07/13 00:33:04;;;;;;;4.17;3.17;;;;;;;;;;5014458;28;20451;-56
2023/07/13 00:35:31;;;;;;;2.40;2.20;;;;;;;;;;5014637;28;20477;-55
2023/07/13 00:38:00;;;;;;;3.63;2.80;;;;;;;;;;5014528;28;20454;-55
2023/07/13 00:40:26;;;;;;;3.23;2.93;;;;;;;;;;5014527;28;20451;-54
2023/07/13 00:42:54;;;;;;;2.73;2.63;;;;;;;;;;5014423;28;21327;-56
2023/07/13 00:45:41;;;;;;;9.70;3.10;;;;;;;;;;5014346;28;20465;-55
2023/07/13 00:48:08;;;;;;;2.83;2.53;;;;;;;;;;4981527;28;20843;-55
2023/07/13 00:50:35;;;;;;;2.77;2.57;;;;;;;;;;5014148;28;20548;-54
2023/07/13 00:53:03;;;;;;;3.40;2.13;;;;;;;;;;5014264;28;20545;-55
2023/07/13 00:55:30;;;;;;;2.30;2.10;;;;;;;;;;5014170;28;20460;-54
2023/07/13 00:57:58;;;;;;;2.60;2.33;;;;;;;;;;5013825;28;20986;-53
2023/07/13 01:00:26;;;;;;;2.50;2.23;;;;;;;;;;5014299;28;20938;-55
2023/07/13 01:02:53;;;;;;;2.40;2.30;;;;;;;;;;5013953;28;20891;-54
2023/07/13 01:05:21;;;;;;;3.00;2.17;;;;;;;;;;5013574;28;20453;-52
2023/07/13 01:07:51;;;;;;;2.40;2.30;;;;;;;;;;5013869;28;20473;-54
2023/07/13 01:10:22;;;;;;;2.30;2.10;;;;;;;;;;5013803;28;20829;-53
2023/07/13 01:12:49;;;;;;;5.13;2.80;;;;;;;;;;5013762;28;20447;-54
2023/07/13 01:15:35;;;;;;;3.00;2.70;;;;;;;;;;5013946;28;20443;-51
2023/07/13 01:18:03;;;;;;;2.53;2.33;;;;;;;;;;5014065;28;20926;-54
2023/07/13 01:20:30;;;;;;;3.00;2.70;;;;;;;;;;5013668;28;20453;-56
2023/07/13 01:22:59;;;;;;;2.87;2.57;;;;;;;;;;5013616;28;20451;-54
2023/07/13 01:25:26;;;;;;;4.37;2.53;;;;;;;;;;5013812;28;20454;-54
2023/07/13 01:27:53;;;;;;;3.73;2.67;;;;;;;;;;5013662;28;20456;-52
2023/07/13 01:30:20;;;;;;;2.87;2.33;;;;;;;;;;5013584;28;20450;-56
2023/07/13 01:32:47;;;;;;;2.50;2.30;;;;;;;;;;5013509;28;20891;-56
2023/07/13 01:35:14;;;;;;;2.57;2.47;;;;;;;;;;5013487;28;20887;-56
2023/07/13 01:37:41;;;;;;;2.27;2.17;;;;;;;;;;5013260;28;20452;-55
2023/07/13 01:40:10;;;;;;;3.87;2.60;;;;;;;;;;5013577;28;20545;-56
2023/07/13 01:42:38;;;;;;;3.10;2.83;;;;;;;;;;5013406;28;20799;-56
2023/07/13 01:45:05;;;;;;;2.70;2.50;;;;;;;;;;5013392;28;20453;-56
2023/07/13 01:47:32;;;;;;;3.13;2.90;;;;;;;;;;5013354;28;20784;-54
2023/07/13 01:49:59;;;;;;;3.53;2.40;;;;;;;;;;5013150;28;21105;-57
2023/07/13 01:52:26;;;;;;;2.67;2.47;;;;;;;;;;5013132;28;21016;-54
2023/07/13 01:54:53;;;;;;;8.67;3.10;;;;;;;;;;5013364;28;20454;-53
2023/07/13 01:57:22;;;;;;;5.73;2.80;;;;;;;;;;5012937;28;20541;-56
2023/07/13 01:59:49;;;;;;;5.13;2.50;;;;;;;;;;5013085;28;20946;-55
2023/07/13 02:02:16;;;;;;;4.90;2.47;;;;;;;;;;5013164;28;20546;-54
2023/07/13 02:04:43;;;;;;;3.50;2.40;;;;;;;;;;5013063;28;20442;-56
2023/07/13 02:07:10;;;;;;;2.93;2.73;;;;;;;;;;5013233;28;20649;-56
2023/07/13 02:09:37;;;;;;;2.90;2.70;;;;;;;;;;5013219;28;20509;-56
2023/07/13 02:12:04;;;;;;;2.87;2.57;;;;;;;;;;5013091;28;20450;-56
2023/07/13 02:14:32;;;;;;;2.87;2.67;;;;;;;;;;5013615;28;20446;-56
2023/07/13 02:16:59;;;;;;;2.33;2.13;;;;;;;;;;5017022;28;20508;-55
2023/07/13 02:19:26;;;;;;;2.10;2.00;;;;;;;;;;5016856;28;20809;-55
2023/07/13 02:21:53;;;;;;;2.43;2.30;;;;;;;;;;5017090;28;20458;-55
2023/07/13 02:24:20;;;;;;;4.13;2.30;;;;;;;;;;5016974;28;20806;-55
2023/07/13 02:26:48;;;;;;;4.10;2.30;;;;;;;;;;5016964;28;20451;-56
2023/07/13 02:29:15;;;;;;;3.37;2.37;;;;;;;;;;5016771;28;20986;-56
2023/07/13 02:31:44;;;;;;;5.47;2.60;;;;;;;;;;5016711;28;20452;-55
2023/07/13 02:34:11;;;;;;;5.37;3.07;;;;;;;;;;5016732;28;20577;-54
2023/07/13 02:36:37;;;;;;;3.37;3.17;;;;;;;;;;5016865;28;20451;-55
2023/07/13 02:39:07;;;;;;;2.60;2.40;;;;;;;;;;5016616;28;21046;-53
2023/07/13 02:41:34;;;;;;;3.60;3.03;;;;;;;;;;5016690;28;20541;-54
2023/07/13 02:44:03;;;;;;;3.00;2.80;;;;;;;;;;5016567;28;20807;-53
2023/07/13 02:46:30;;;;;;;3.80;2.40;;;;;;;;;;5016480;28;21012;-55
2023/07/13 02:48:58;;;;;;;4.47;2.50;;;;;;;;;;5016492;28;20478;-55
2023/07/13 02:51:25;;;;;;;3.00;2.80;;;;;;;;;;5016407;28;20454;-55
2023/07/13 02:53:52;;;;;;;3.50;2.33;;;;;;;;;;5016469;28;20450;-53
2023/07/13 02:56:19;;;;;;;3.20;2.90;;;;;;;;;;5016219;28;20474;-54
2023/07/13 02:58:46;;;;;;;3.30;3.00;;;;;;;;;;5016229;28;20553;-55
2023/07/13 03:01:18;;;;;;;8.07;3.30;;;;;;;;;;5016130;28;20954;-56
2023/07/13 03:03:45;;;;;;;6.50;3.27;;;;;;;;;;5016364;28;20450;-56
2023/07/13 03:06:14;;;;;;;3.17;2.70;;;;;;;;;;5016253;28;20446;-54
2023/07/13 03:08:41;;;;;;;3.67;3.37;;;;;;;;;;5015961;28;20942;-53
2023/07/13 03:11:10;;;;;;;3.50;3.20;;;;;;;;;;5015996;28;20489;-55
2023/07/13 03:13:37;;;;;;;3.80;3.07;;;;;;;;;;5015868;28;20454;-54
2023/07/13 03:16:05;;;;;;;3.47;3.17;;;;;;;;;;5016082;28;20457;-55
2023/07/13 03:18:32;;;;;;;3.57;2.97;;;;;;;;;;5015821;28;20450;-50
2023/07/13 03:20:59;;;;;;;5.17;3.50;;;;;;;;;;5015927;28;20475;-50
2023/07/13 03:23:27;;;;;;;4.70;3.50;;;;;;;;;;5015829;28;20456;-51
2023/07/13 03:26:02;;;;;;;3.33;3.10;;;;;;;;;;5015613;28;20459;-55
2023/07/13 03:28:29;;;;;;;2.83;2.60;;;;;;;;;;5015521;28;20467;-54
2023/07/13 03:31:00;;;;;;;3.30;3.10;;;;;;;;;;5015598;28;20932;-54
2023/07/13 03:33:27;;;;;;;3.60;3.00;;;;;;;;;;5015718;28;20554;-57
2023/07/13 03:35:54;;;;;;;4.17;3.00;;;;;;;;;;5015460;28;20982;-57
2023/07/13 03:38:21;;;;;;;3.70;3.40;;;;;;;;;;5015496;28;20472;-56
2023/07/13 03:40:49;;;;;;;3.40;3.20;;;;;;;;;;5015417;28;20533;-55
2023/07/13 03:43:16;;;;;;;4.93;3.00;;;;;;;;;;5015365;28;20949;-57
2023/07/13 03:45:44;;;;;;;4.60;3.07;;;;;;;;;;5015458;28;20453;-55
2023/07/13 03:48:11;;;;;;;5.27;3.13;;;;;;;;;;5015385;28;20461;-58
2023/07/13 03:50:38;;;;;;;2.87;2.70;;;;;;;;;;5015167;28;20486;-56
2023/07/13 03:53:05;;;;;;;4.13;3.30;;;;;;;;;;5015162;28;20457;-55
2023/07/13 03:55:32;;;;;;;8.60;3.40;;;;;;;;;;5015419;28;20857;-57
2023/07/13 03:58:01;;;;;;;3.80;3.50;;;;;;;;;;5014959;28;20480;-56
2023/07/13 04:00:28;;;;;;;5.13;3.53;;;;;;;;;;5015266;28;20454;-55
2023/07/13 04:02:55;;;;;;;3.13;2.93;;;;;;;;;;5015078;28;20453;-57
2023/07/13 04:05:22;;;;;;;4.13;2.73;;;;;;;;;;5014998;28;20460;-53
2023/07/13 04:07:49;;;;;;;2.83;2.40;;;;;;;;;;5014949;28;20449;-55
2023/07/13 04:10:16;;;;;;;3.00;2.80;;;;;;;;;;5015044;28;20489;-51
2023/07/13 04:12:43;;;;;;;2.73;2.53;;;;;;;;;;5015024;28;20459;-53
2023/07/13 04:15:11;;;;;;;2.50;2.40;;;;;;;;;;5014893;28;20544;-54
2023/07/13 04:17:38;;;;;;;4.33;2.90;;;;;;;;;;5014798;28;20450;-53
2023/07/13 04:20:06;;;;;;;2.87;2.60;;;;;;;;;;5014653;28;20544;-56
2023/07/13 04:22:32;;;;;;;2.83;2.63;;;;;;;;;;5014884;28;20446;-54
2023/07/13 04:24:59;;;;;;;3.60;3.10;;;;;;;;;;5014779;28;20451;-57
2023/07/13 04:27:28;;;;;;;3.37;3.07;;;;;;;;;;5014692;28;20456;-56
2023/07/13 04:29:55;;;;;;;4.47;3.57;;;;;;;;;;5014538;28;20889;-57
2023/07/13 04:32:23;;;;;;;3.50;3.20;;;;;;;;;;5014518;28;20486;-55
2023/07/13 04:34:54;;;;;;;4.57;3.00;;;;;;;;;;5014378;28;20452;-57
2023/07/13 04:37:21;;;;;;;2.63;2.43;;;;;;;;;;5014663;28;20457;-56
2023/07/13 04:39:48;;;;;;;3.03;2.83;;;;;;;;;;5013313;28;20482;-56
2023/07/13 04:42:15;;;;;;;2.90;2.70;;;;;;;;;;5014410;28;20451;-57
2023/07/13 04:44:42;;;;;;;4.30;3.07;;;;;;;;;;5014183;28;21066;-57
2023/07/13 04:47:09;;;;;;;5.63;2.70;;;;;;;;;;5014183;28;20454;-55
2023/07/13 04:49:37;;;;;;;2.93;2.73;;;;;;;;;;5013945;28;20500;-56
2023/07/13 04:52:04;;;;;;;5.00;3.20;;;;;;;;;;5014109;28;20493;-57
2023/07/13 04:54:31;;;;;;;3.00;2.73;;;;;;;;;;5014170;28;20489;-53
2023/07/13 04:56:58;;;;;;;4.03;2.70;;;;;;;;;;5013892;28;20474;-56
2023/07/13 04:59:25;;;;;;;3.83;2.60;;;;;;;;;;5013996;28;20513;-55
2023/07/13 05:01:52;;;;;;;3.30;2.90;;;;;;;;;;5013843;28;20451;-56
2023/07/13 05:04:19;;;;;;;3.10;2.80;;;;;;;;;;5014065;28;20455;-55
2023/07/13 05:06:47;;;;;;;3.00;2.43;;;;;;;;;;5014039;28;20452;-54
2023/07/13 05:09:14;;;;;;;3.80;2.83;;;;;;;;;;5013852;28;20453;-52
2023/07/13 05:11:41;;;;;;;3.37;2.80;;;;;;;;;;5013752;28;20863;-55
2023/07/13 05:14:09;;;;;;;3.43;2.90;;;;;;;;;;5013692;28;20450;-54
2023/07/13 05:16:36;;;;;;;3.93;3.13;;;;;;;;;;5013559;28;20451;-56
2023/07/13 05:19:03;;;;;;;3.00;2.37;;;;;;;;;;5013830;28;20960;-55
2023/07/13 05:21:30;;;;;;;2.80;2.40;;;;;;;;;;5013698;28;20455;-56
2023/07/13 05:23:58;;;;;;;4.40;2.40;;;;;;;;;;5013655;28;20455;-56
2023/07/13 05:26:25;;;;;;;2.10;2.00;;;;;;;;;;5013570;28;20462;-57
2023/07/13 05:28:52;;;;;;;3.30;2.67;;;;;;;;;;5013408;28;20491;-56
2023/07/13 05:31:19;;;;;;;2.63;2.10;;;;;;;;;;5013541;28;20486;-57
2023/07/13 05:33:46;;;;;;;2.30;2.10;;;;;;;;;;5013517;28;20461;-58
2023/07/13 05:36:13;;;;;;;2.20;2.00;;;;;;;;;;5013699;28;20455;-55
2023/07/13 05:38:40;;;;;;;2.90;2.10;;;;;;;;;;5013339;28;20536;-57
2023/07/13 05:41:08;;;;;;;1.97;1.87;;;;;;;;;;5013285;28;20463;-57
2023/07/13 05:43:35;;;;;;;2.40;1.70;;;;;;;;;;5013113;28;20446;-59
2023/07/13 05:46:02;;;;;;;4.23;2.07;;;;;;;;;;5013437;28;20538;-53
2023/07/13 05:48:29;;;;;;;3.20;1.90;;;;;;;;;;5013378;28;20798;-57
2023/07/13 05:50:56;;;;;;;2.47;2.10;;;;;;;;;;5012818;28;20482;-55
2023/07/13 05:53:23;;;;;;;1.83;1.63;;;;;;;;;;5013093;28;21002;-56
2023/07/13 05:55:52;;;;;;;5.07;2.43;;;;;;;;;;5012859;28;20461;-57
2023/07/13 05:58:21;;;;;;;4.03;1.90;;;;;;;;;;5013375;28;20946;-56
2023/07/13 06:00:48;;;;;;;3.20;2.30;;;;;;;;;;5013265;28;20508;-52
2023/07/13 06:03:15;;;;;;;2.03;1.77;;;;;;;;;;5013175;28;21022;-52
2023/07/13 06:05:42;;;;;;;4.03;1.83;;;;;;;;;;5013131;28;20447;-56
2023/07/13 06:08:10;;;;;;;2.10;1.90;;;;;;;;;;5012995;28;20944;-55
2023/07/13 06:10:37;;;;;;;2.00;1.80;;;;;;;;;;5012768;28;20494;-57
2023/07/13 06:13:04;;;;;;;5.40;2.10;;;;;;;;;;5012870;28;20964;-55
2023/07/13 06:15:32;;;;;;;2.43;2.00;;;;;;;;;;5013123;28;20451;-53
2023/07/13 06:17:59;;;;;;;1.83;1.73;;;;;;;;;;5012859;28;20458;-57
2023/07/13 06:20:26;;;;;;;2.57;1.83;;;;;;;;;;5012929;28;20450;-56
2023/07/13 06:22:53;;;;;;;4.30;1.77;;;;;;;;;;5012901;28;20565;-56
2023/07/13 06:25:20;;;;;;;4.73;2.13;;;;;;;;;;5012715;28;20457;-57
2023/07/13 06:27:47;;;;;;;3.93;2.00;;;;;;;;;;5012920;28;20926;-57
2023/07/13 06:30:14;;;;;;;2.07;1.40;;;;;;;;;;5012875;28;20478;-57
2023/07/13 06:32:42;;;;;;;1.70;1.60;;;;;;;;;;5012904;28;20454;-56
2023/07/13 06:35:12;;;;;;;5.17;2.53;;;;;;;;;;5012833;28;20541;-56
2023/07/13 06:37:41;;;;;;;2.53;1.50;;;;;;;;;;5012655;28;20455;-54
2023/07/13 06:40:08;;;;;;;2.07;1.53;;;;;;;;;;5012651;28;20962;-54
2023/07/13 06:42:35;;;;;;;3.50;1.70;;;;;;;;;;5012726;28;20450;-52
2023/07/13 06:45:02;;;;;;;3.70;1.77;;;;;;;;;;5012675;28;20451;-54
2023/07/13 06:47:29;;;;;;;4.43;1.87;;;;;;;;;;5013008;28;20884;-57
2023/07/13 06:49:57;;;;;;;4.30;1.57;;;;;;;;;;5012483;28;20485;-57
2023/07/13 06:52:24;;;;;;;2.47;1.57;;;;;;;;;;5012551;28;20454;-55
2023/07/13 06:54:51;;;;;;;2.13;1.90;;;;;;;;;;5012736;28;20541;-55
2023/07/13 06:57:18;;;;;;;1.57;1.30;;;;;;;;;;5012449;28;20480;-56
2023/07/13 06:59:45;;;;;;;2.23;1.50;;;;;;;;;;5012676;28;20451;-55
2023/07/13 07:02:12;;;;;;;3.20;1.47;;;;;;;;;;5013735;28;20474;-53
2023/07/13 07:04:39;;;;;;;1.90;1.63;;;;;;;;;;5016146;28;20498;-56
2023/07/13 07:07:07;;;;;;;3.07;1.70;;;;;;;;;;5017403;28;20500;-54
2023/07/13 07:09:34;;;;;;;2.90;1.47;;;;;;;;;;5024411;28;20451;-54
2023/07/13 07:12:01;;;;;;;3.30;1.20;;;;;;;;;;5018131;28;20490;-51
2023/07/13 07:14:28;;;;;;;1.50;1.40;;;;;;;;;;5016070;28;20493;-56
2023/07/13 07:16:55;;;;;;;5.03;1.57;;;;;;;;;;5015878;28;20457;-55
2023/07/13 07:19:22;;;;;;;2.17;1.50;;;;;;;;;;5015698;28;20486;-57
2023/07/13 07:21:49;;;;;;;2.20;1.80;;;;;;;;;;5015768;28;20493;-56
2023/07/13 07:24:17;;;;;;;1.63;1.33;;;;;;;;;;5015861;28;20461;-57
2023/07/13 07:26:45;;;;;;;2.13;1.30;;;;;;;;;;5015828;28;20454;-56
2023/07/13 07:29:12;;;;;;;2.83;1.50;;;;;;;;;;5015728;28;20447;-56
2023/07/13 07:31:39;;;;;;;4.43;1.50;;;;;;;;;;5015528;28;20479;-59
2023/07/13 07:34:06;;;;;;;3.10;1.63;;;;;;;;;;5015569;28;20451;-57
2023/07/13 07:36:33;;;;;;;2.10;1.90;;;;;;;;;;5015754;28;20451;-57
2023/07/13 07:39:00;;;;;;;1.47;1.37;;;;;;;;;;5015480;28;20953;-56
2023/07/13 07:41:28;;;;;;;2.13;1.93;;;;;;;;;;5015552;28;20513;-57
2023/07/13 07:43:55;;;;;;;3.03;1.40;;;;;;;;;;5015409;28;20651;-56
2023/07/13 07:46:22;;;;;;;1.20;1.10;;;;;;;;;;5015232;28;21033;-57
2023/07/13 07:48:49;;;;;;;1.93;1.40;;;;;;;;;;5015312;28;20449;-57
2023/07/13 07:51:16;;;;;;;3.50;1.80;;;;;;;;;;5015360;28;20486;-59
2023/07/13 07:53:43;;;;;;;2.50;1.80;;;;;;;;;;5015199;28;20452;-57
2023/07/13 07:56:10;;;;;;;2.70;1.77;;;;;;;;;;5015046;28;20659;-57
2023/07/13 07:58:39;;;;;;;2.40;1.80;;;;;;;;;;5015026;28;20508;-57
2023/07/13 08:01:07;;;;;;;7.50;1.70;;;;;;;;;;5014980;28;20454;-57
2023/07/13 08:03:34;;;;;;;4.10;1.80;;;;;;;;;;5014829;28;20946;-57
2023/07/13 08:06:00;;;;;;;3.87;1.40;;;;;;;;;;5014959;28;20462;-56
2023/07/13 08:08:27;;;;;;;1.90;1.67;;;;;;;;;;5014897;28;20484;-53
2023/07/13 08:10:55;;;;;;;1.47;1.37;;;;;;;;;;5014899;28;20480;-56
2023/07/13 08:13:22;;;;;;;2.03;1.40;;;;;;;;;;5014417;28;20461;-56
2023/07/13 08:15:50;;;;;;;3.70;1.40;;;;;;;;;;5014807;28;20821;-56
2023/07/13 08:18:17;;;;;;;1.60;1.10;;;;;;;;;;5014851;28;20819;-57
2023/07/13 08:20:44;;;;;;;3.00;1.47;;;;;;;;;;5014722;28;20454;-56
2023/07/13 08:23:11;;;;;;;1.77;1.67;;;;;;;;;;5022461;28;20445;-54
2023/07/13 08:25:38;;;;;;;5.73;1.60;;;;;;;;;;5024179;28;20524;-56
2023/07/13 08:28:05;;;;;;;3.60;1.60;;;;;;;;;;5022812;28;20486;-53
2023/07/13 08:30:32;;;;;;;1.30;1.00;;;;;;;;;;5016949;28;20566;-56
2023/07/13 08:33:02;;;;;;;3.13;1.20;;;;;;;;;;5024415;28;20446;-57
2023/07/13 08:35:28;;;;;;;2.70;1.20;;;;;;;;;;5034262;28;20515;-56
2023/07/13 08:37:55;;;;;;;2.50;1.10;;;;;;;;;;5034286;28;20485;-56
2023/07/13 08:40:26;;;;;;;3.03;1.30;;;;;;;;;;5034147;28;20455;-57
2023/07/13 08:42:55;;;;;;;4.07;1.40;;;;;;;;;;5034035;28;20797;-55
2023/07/13 08:45:24;;;;;;;2.80;1.20;;;;;;;;;;5034095;28;20887;-55
2023/07/13 08:47:54;;;;;;;2.87;1.30;;;;;;;;;;5034045;28;20452;-57
2023/07/13 08:50:26;;;;;;;3.00;1.20;;;;;;;;;;5033915;28;20457;-56
2023/07/13 08:52:53;;;;;;;1.13;1.03;;;;;;;;;;5033914;28;20533;-57
2023/07/13 08:55:22;;;;;;;2.60;1.23;;;;;;;;;;5033723;28;20480;-57
2023/07/13 08:57:52;;;;;;;2.50;1.50;;;;;;;;;;5033604;28;20901;-57
2023/07/13 09:00:19;;;;;;;2.60;1.13;;;;;;;;;;5033815;28;20558;-57
2023/07/13 09:02:47;;;;;;;1.67;1.30;;;;;;;;;;5033665;28;20465;-57
2023/07/13 09:05:16;;;;;;;4.93;1.40;;;;;;;;;;5033664;28;20492;-56
2023/07/13 09:07:59;;;;;;;5.20;1.40;;;;;;;;;;5033553;28;20445;-53
2023/07/13 09:10:29;;;;;;;1.30;1.20;;;;;;;;;;5033642;28;20546;-58
2023/07/13 09:13:04;;;;;;;5.03;1.40;;;;;;;;;;5033664;28;20810;-51
2023/07/13 09:15:32;;;;;;;1.27;1.17;;;;;;;;;;5033546;28;20449;-56
2023/07/13 09:18:02;;;;;;;9.70;1.83;;;;;;;;;;5033449;28;20446;-56
2023/07/13 09:20:31;;;;;;;9.97;2.90;;;;;;;;;;5033396;28;20529;-54
2023/07/13 09:23:00;;;;;;;1.53;1.30;;;;;;;;;;5033451;28;20450;-60
2023/07/13 09:25:30;;;;;;;1.43;1.33;;;;;;;;;;5032606;28;20449;-60
2023/07/13 09:28:01;;;;;;;2.63;1.33;;;;;;;;;;5033300;28;20838;-58
2023/07/13 09:30:31;;;;;;;2.30;1.20;;;;;;;;;;5032991;28;20540;-58
2023/07/13 09:33:00;;;;;;;1.67;1.47;;;;;;;;;;5033283;28;20460;-57
2023/07/13 09:35:28;;;;;;;2.33;1.67;;;;;;;;;;5033129;28;20869;-60
2023/07/13 09:38:00;;;;;;;1.50;1.40;;;;;;;;;;5033083;28;20461;-58
2023/07/13 09:40:32;;;;;;;4.07;1.30;;;;;;;;;;5032763;28;20456;-58
2023/07/13 09:42:59;;;;;;;1.80;1.70;;;;;;;;;;5033005;28;20814;-60
2023/07/13 09:45:32;;;;;;;3.87;1.90;;;;;;;;;;5032904;28;20485;-57
2023/07/13 09:48:06;;;;;;;3.90;1.27;;;;;;;;;;5032737;28;21018;-59
2023/07/13 09:50:33;;;;;;;7.13;1.80;;;;;;;;;;5032777;28;20457;-60
2023/07/13 09:53:02;;;;;;;2.50;1.70;;;;;;;;;;5016593;28;20477;-60
2023/07/13 09:55:31;;;;;;;1.77;1.43;;;;;;;;;;5012867;28;20488;-60
2023/07/13 09:57:57;;;;;;;2.37;1.63;;;;;;;;;;5012691;28;20969;-59
2023/07/13 10:00:26;;;;;;;2.17;1.37;;;;;;;;;;5013061;28;20476;-60
2023/07/13 10:03:07;;;;;;;2.60;1.93;;;;;;;;;;5013000;28;20581;-60
2023/07/13 10:05:41;;;;;;;4.10;2.20;;;;;;;;;;5012713;28;20532;-59
2023/07/13 10:08:19;;;;;;;3.03;1.87;;;;;;;;;;5022938;28;20502;-60
2023/07/13 10:10:46;;;;;;;3.07;1.50;;;;;;;;;;5032633;28;20453;-59
2023/07/13 10:13:31;;;;;;;2.03;1.40;;;;;;;;;;5032655;28;20453;-60
2023/07/13 10:15:59;;;;;;;2.67;1.30;;;;;;;;;;5032666;28;20450;-60
2023/07/13 10:18:26;;;;;;;1.50;1.40;;;;;;;;;;5032376;28;20532;-60
2023/07/13 10:20:55;;;;;;;2.23;1.47;;;;;;;;;;5032761;28;20451;-60
2023/07/13 10:23:27;;;;;;;3.40;2.20;;;;;;;;;;5032681;28;20541;-60
2023/07/13 10:25:54;;;;;;;3.50;2.00;;;;;;;;;;5032451;28;20481;-60
2023/07/13 10:28:25;;;;;;;3.07;1.80;;;;;;;;;;5032623;28;20449;-60
2023/07/13 10:30:54;;;;;;;2.00;1.40;;;;;;;;;;5032130;28;20477;-59
2023/07/13 10:33:22;;;;;;;3.40;1.90;;;;;;;;;;5032369;28;20537;-57
2023/07/13 10:35:54;;;;;;;2.37;1.60;;;;;;;;;;5033441;28;20543;-57
2023/07/13 10:38:23;;;;;;;1.70;1.50;;;;;;;;;;5036243;28;20457;-58
2023/07/13 10:40:56;;;;;;;1.93;1.50;;;;;;;;;;5036229;28;20532;-58
2023/07/13 10:43:26;;;;;;;1.73;1.53;;;;;;;;;;5036043;28;20484;-59
2023/07/13 10:45:54;;;;;;;5.37;1.60;;;;;;;;;;5036114;28;20452;-55
2023/07/13 10:48:23;;;;;;;2.73;1.67;;;;;;;;;;5036236;28;20445;-55
2023/07/13 10:50:52;;;;;;;1.50;1.40;;;;;;;;;;5036048;28;20786;-55
2023/07/13 10:53:20;;;;;;;1.60;1.43;;;;;;;;;;5035987;28;20569;-57
2023/07/13 10:56:00;;;;;;;2.80;2.60;;;;;;;;;;5035900;28;20457;-59
2023/07/13 10:58:30;;;;;;;2.03;1.90;;;;;;;;;;5036154;28;20536;-58
2023/07/13 11:01:00;;;;;;;2.70;2.07;;;;;;;;;;5035855;28;20460;-58
2023/07/13 11:03:29;;;;;;;1.63;1.53;;;;;;;;;;5035438;28;20973;-58
2023/07/13 11:06:08;;;;;;;2.90;1.90;;;;;;;;;;5035663;28;20453;-57
2023/07/13 11:08:37;;;;;;;2.60;2.50;;;;;;;;;;5035716;28;20810;-57
2023/07/13 11:11:26;;;;;;;4.90;2.43;;;;;;;;;;5035752;28;20453;-59
2023/07/13 11:14:02;;;;;;;2.43;2.23;;;;;;;;;;5035327;28;20450;-58
2023/07/13 11:16:37;;;;;;;2.70;2.50;;;;;;;;;;5035443;28;20449;-56
2023/07/13 11:19:26;;;;;;;2.47;2.10;;;;;;;;;;5035269;28;20449;-59
2023/07/13 11:22:13;;;;;;;3.90;2.30;;;;;;;;;;5035440;28;20461;-60
2023/07/13 11:24:51;;;;;;;4.47;1.60;;;;;;;;;;5035452;28;20449;-59
2023/07/13 11:27:36;;;;;;;2.80;1.97;;;;;;;;;;5035010;28;20457;-59
2023/07/13 11:30:22;;;;;;;3.33;2.63;;;;;;;;;;5035042;28;20446;-59
2023/07/13 11:32:52;;;;;;;3.33;2.50;;;;;;;;;;5035222;28;20969;-58
2023/07/13 11:35:22;;;;;;;4.70;1.97;;;;;;;;;;5035111;28;20454;-59
2023/07/13 11:37:49;;;;;;;1.67;1.57;;;;;;;;;;5035289;28;20536;-58
2023/07/13 11:40:17;;;;;;;2.17;1.50;;;;;;;;;;5035531;28;20445;-58
2023/07/13 11:42:45;;;;;;;4.17;2.40;;;;;;;;;;5035281;28;20571;-58
2023/07/13 11:45:22;;;;;;;1.57;1.47;;;;;;;;;;5035232;28;20452;-57
2023/07/13 11:47:50;;;;;;;2.10;1.73;;;;;;;;;;5034451;28;20540;-58
2023/07/13 11:50:22;;;;;;;4.00;1.87;;;;;;;;;;5028393;28;20453;-56
2023/07/13 11:52:53;;;;;;;3.00;1.80;;;;;;;;;;5019393;28;20474;-52
2023/07/13 11:55:21;;;;;;;2.53;2.03;;;;;;;;;;5015306;28;20834;-58
2023/07/13 11:57:51;;;;;;;2.00;1.90;;;;;;;;;;5015053;28;20506;-55
2023/07/13 12:00:20;;;;;;;2.20;2.00;;;;;;;;;;5015044;28;20651;-57
2023/07/13 12:02:51;;;;;;;2.40;2.20;;;;;;;;;;5014926;28;20458;-63
2023/07/13 12:05:20;;;;;;;2.30;2.10;;;;;;;;;;5014055;28;20490;-58
2023/07/13 12:07:47;;;;;;;2.53;2.00;;;;;;;;;;5014841;28;20818;-58
2023/07/13 12:10:19;;;;;;;2.27;1.97;;;;;;;;;;5014860;28;20877;-57
2023/07/13 12:12:53;;;;;;;3.67;1.50;;;;;;;;;;5014621;28;20573;-59
2023/07/13 12:15:21;;;;;;;2.67;1.70;;;;;;;;;;5014636;28;20462;-58
2023/07/13 12:17:48;;;;;;;2.87;1.80;;;;;;;;;;5014640;28;20472;-57
2023/07/13 12:20:21;;;;;;;2.10;1.90;;;;;;;;;;5014561;28;20457;-57
2023/07/13 12:22:49;;;;;;;5.10;2.10;;;;;;;;;;5014692;28;20451;-56
2023/07/13 12:25:17;;;;;;;2.07;1.87;;;;;;;;;;5014432;28;20457;-57
2023/07/13 12:27:47;;;;;;;3.77;1.87;;;;;;;;;;5014653;28;20807;-58
2023/07/13 12:30:35;;;;;;;1.80;1.63;;;;;;;;;;5014739;28;20534;-55
2023/07/13 12:33:08;;;;;;;1.80;1.50;;;;;;;;;;5014287;28;20489;-58
2023/07/13 12:35:41;;;;;;;2.17;1.60;;;;;;;;;;5014327;28;20454;-58
2023/07/13 12:38:10;;;;;;;2.10;2.00;;;;;;;;;;5014264;28;20482;-58
2023/07/13 12:40:37;;;;;;;2.93;2.10;;;;;;;;;;5014291;28;20496;-58
2023/07/13 12:43:06;;;;;;;2.60;1.60;;;;;;;;;;5014173;28;20493;-58
2023/07/13 12:45:33;;;;;;;3.10;1.70;;;;;;;;;;5014028;28;21028;-57
2023/07/13 12:48:04;;;;;;;2.27;1.97;;;;;;;;;;5014293;28;20451;-52
2023/07/13 12:50:38;;;;;;;2.20;2.03;;;;;;;;;;5014009;28;20458;-58
2023/07/13 12:53:07;;;;;;;3.83;1.77;;;;;;;;;;5014076;28;20471;-60
2023/07/13 12:55:41;;;;;;;1.97;1.57;;;;;;;;;;5014175;28;20487;-58
2023/07/13 12:58:15;;;;;;;2.13;1.50;;;;;;;;;;5014008;28;20549;-58
2023/07/13 13:00:42;;;;;;;2.93;1.60;;;;;;;;;;5012957;28;20451;-58
2023/07/13 13:03:16;;;;;;;1.93;1.50;;;;;;;;;;5013830;28;20451;-55
2023/07/13 13:05:45;;;;;;;2.27;1.63;;;;;;;;;;5013782;28;20509;-58
2023/07/13 13:08:13;;;;;;;9.70;2.10;;;;;;;;;;5014036;28;20458;-58
2023/07/13 13:10:40;;;;;;;1.70;1.60;;;;;;;;;;5013448;28;20521;-58
2023/07/13 13:13:10;;;;;;;3.10;2.07;;;;;;;;;;5013179;28;20915;-58
2023/07/13 13:15:37;;;;;;;3.63;1.83;;;;;;;;;;5013552;28;20461;-58
2023/07/13 13:18:05;;;;;;;2.50;1.60;;;;;;;;;;5013940;28;20462;-57
2023/07/13 13:20:31;;;;;;;2.40;1.30;;;;;;;;;;5013614;28;20462;-58
2023/07/13 13:23:00;;;;;;;2.50;1.67;;;;;;;;;;5013578;28;20549;-58
2023/07/13 13:25:27;;;;;;;4.37;1.70;;;;;;;;;;5013453;28;20455;-57
2023/07/13 13:27:54;;;;;;;6.20;1.93;;;;;;;;;;5013439;28;20562;-58
2023/07/13 13:30:21;;;;;;;7.10;1.87;;;;;;;;;;5013313;28;20477;-57
2023/07/13 13:32:49;;;;;;;3.97;1.60;;;;;;;;;;5013330;28;20485;-58
2023/07/13 13:35:17;;;;;;;2.10;1.30;;;;;;;;;;5013221;28;20451;-57
2023/07/13 13:37:44;;;;;;;5.00;1.60;;;;;;;;;;5013263;28;20962;-57
2023/07/13 13:40:20;;;;;;;2.80;1.47;;;;;;;;;;5013278;28;20803;-57
2023/07/13 13:42:47;;;;;;;1.93;1.33;;;;;;;;;;5013160;28;21036;-57
2023/07/13 13:45:15;;;;;;;4.80;1.50;;;;;;;;;;5013443;28;20454;-57
2023/07/13 13:47:43;;;;;;;2.20;1.40;;;;;;;;;;5013327;28;20887;-56
2023/07/13 13:50:14;;;;;;;3.17;1.37;;;;;;;;;;5013027;28;21021;-57
2023/07/13 13:52:41;;;;;;;1.37;1.27;;;;;;;;;;5012833;28;20516;-57
2023/07/13 13:55:13;;;;;;;2.27;1.20;;;;;;;;;;5012819;28;20895;-57
2023/07/13 13:57:41;;;;;;;2.10;1.57;;;;;;;;;;5012883;28;21038;-57
2023/07/13 14:00:11;;;;;;;1.70;1.40;;;;;;;;;;5012328;28;20450;-56
2023/07/13 14:02:39;;;;;;;3.23;2.00;;;;;;;;;;5013247;28;20478;-57
2023/07/13 14:05:08;;;;;;;3.30;1.20;;;;;;;;;;5013024;28;20457;-57
2023/07/13 14:07:35;;;;;;;2.30;1.43;;;;;;;;;;5012995;28;20456;-57
2023/07/13 14:10:02;;;;;;;1.80;1.10;;;;;;;;;;5012510;28;20545;-58
2023/07/13 14:12:29;;;;;;;4.00;1.20;;;;;;;;;;5019260;28;20476;-57
2023/07/13 14:14:58;;;;;;;2.33;1.20;;;;;;;;;;5019624;28;20454;-57
2023/07/13 14:17:26;;;;;;;2.53;1.70;;;;;;;;;;5019445;28;20943;-57
2023/07/13 14:19:56;;;;;;;3.23;1.57;;;;;;;;;;5019358;28;20446;-57
2023/07/13 14:22:23;;;;;;;1.53;1.20;;;;;;;;;;5019065;28;20508;-57
2023/07/13 14:24:50;;;;;;;1.40;1.10;;;;;;;;;;5019478;28;20489;-56
2023/07/13 14:27:17;;;;;;;4.40;1.20;;;;;;;;;;5019327;28;20520;-57
2023/07/13 14:29:44;;;;;;;3.33;1.20;;;;;;;;;;5019145;28;21055;-57
2023/07/13 14:32:13;;;;;;;4.73;1.47;;;;;;;;;;5018840;28;20469;-57
2023/07/13 14:34:40;;;;;;;1.87;1.47;;;;;;;;;;5018960;28;20461;-57
2023/07/13 14:37:13;;;;;;;1.50;1.00;;;;;;;;;;5019220;28;21030;-57
2023/07/13 14:39:40;;;;;;;2.03;1.43;;;;;;;;;;5019256;28;20486;-57
2023/07/13 14:42:07;;;;;;;3.47;1.67;;;;;;;;;;5019296;28;20992;-57
2023/07/13 14:44:34;;;;;;;2.83;1.07;;;;;;;;;;5019198;28;20537;-57
2023/07/13 14:47:03;;;;;;;1.47;1.10;;;;;;;;;;5019186;28;20486;-56
2023/07/13 14:49:33;;;;;;;5.37;1.43;;;;;;;;;;5019124;28;20461;-56
2023/07/13 14:52:02;;;;;;;3.47;1.27;;;;;;;;;;5019004;28;21025;-56